sensor_id;sensor_type;location;lat;lon;timestamp;temperature;humidity
22742;DHT22;11538;48.884;8.696;2023-12-20T00:00:36;7.80;99.90
22742;DHT22;11538;48.884;8.696;2023-12-20T00:03:06;7.80;99.90
22742;DHT22;11538;48.884;8.696;2023-12-20T00:05:33;7.80;99.90
22742;DHT22;11538;48.884;8.696;2023-12-20T00:08:01;7.80;99.90
22742;DHT22;11538;48.884;8.696;2023-12-20T00:10:29;7.80;99.90
22742;DHT22;11538;48.884;8.696;2023-12-20T00:12:56;7.70;99.90
22742;DHT22;11538;48.884;8.696;2023-12-20T00:15:23;7.70;99.90
22742;DHT22;11538;48.884;8.696;2023-12-20T00:17:49;7.70;99.90
22742;DHT22;11538;48.884;8.696;2023-12-20T00:20:17;7.70;99.90
22742;DHT22;11538;48.884;8.696;2023-12-20T00:22:43;7.70;99.90
22742;DHT22;11538;48.884;8.696;2023-12-20T00:25:10;7.70;99.90
22742;DHT22;11538;48.884;8.696;2023-12-20T00:27:37;7.70;99.90
22742;DHT22;11538;48.884;8.696;2023-12-20T00:30:05;7.60;99.90
22742;DHT22;11538;48.884;8.696;2023-12-20T00:32:32;7.60;99.90
22742;DHT22;11538;48.884;8.696;2023-12-20T00:34:59;7.60;99.90
22742;DHT22;11538;48.884;8.696;2023-12-20T00:37:26;7.60;99.90
22742;DHT22;11538;48.884;8.696;2023-12-20T00:39:52;7.60;99.90
22742;DHT22;11538;48.884;8.696;2023-12-20T00:42:20;7.60;99.90
22742;DHT22;11538;48.884;8.696;2023-12-20T00:44:46;7.60;99.90
22742;DHT22;11538;48.884;8.696;2023-12-20T00:47:13;7.60;99.90
22742;DHT22;11538;48.884;8.696;2023-12-20T00:49:40;7.60;99.90
22742;DHT22;11538;48.884;8.696;2023-12-20T00:52:07;7.60;99.90
22742;DHT22;11538;48.884;8.696;2023-12-20T00:54:34;7.50;99.90
22742;DHT22;11538;48.884;8.696;2023-12-20T00:57:01;7.50;99.90
22742;DHT22;11538;48.884;8.696;2023-12-20T00:59:28;7.50;99.90
22742;DHT22;11538;48.884;8.696;2023-12-20T01:01:55;7.50;99.90
22742;DHT22;11538;48.884;8.696;2023-12-20T01:04:22;7.50;99.90
22742;DHT22;11538;48.884;8.696;2023-12-20T01:06:49;7.50;99.90
22742;DHT22;11538;48.884;8.696;2023-12-20T01:09:16;7.50;99.90
22742;DHT22;11538;48.884;8.696;2023-12-20T01:11:43;7.40;99.90
22742;DHT22;11538;48.884;8.696;2023-12-20T01:14:10;7.50;99.90
22742;DHT22;11538;48.884;8.696;2023-12-20T01:16:37;7.40;99.90
22742;DHT22;11538;48.884;8.696;2023-12-20T01:19:03;7.40;99.90
22742;DHT22;11538;48.884;8.696;2023-12-20T01:21:30;7.40;99.90
22742;DHT22;11538;48.884;8.696;2023-12-20T01:23:57;7.40;99.90
22742;DHT22;11538;48.884;8.696;2023-12-20T01:26:24;7.40;99.90
22742;DHT22;11538;48.884;8.696;2023-12-20T01:28:51;7.40;99.90
22742;DHT22;11538;48.884;8.696;2023-12-20T01:31:18;7.40;99.90
22742;DHT22;11538;48.884;8.696;2023-12-20T01:33:45;7.40;99.90
22742;DHT22;11538;48.884;8.696;2023-12-20T01:36:12;7.30;99.90
22742;DHT22;11538;48.884;8.696;2023-12-20T01:38:39;7.30;99.90
22742;DHT22;11538;48.884;8.696;2023-12-20T01:45:02;7.30;99.90
22742;DHT22;11538;48.884;8.696;2023-12-20T01:47:29;7.30;99.90
22742;DHT22;11538;48.884;8.696;2023-12-20T01:49:56;7.20;99.90
22742;DHT22;11538;48.884;8.696;2023-12-20T01:52:25;7.20;99.90
22742;DHT22;11538;48.884;8.696;2023-12-20T01:54:53;7.20;99.90
22742;DHT22;11538;48.884;8.696;2023-12-20T01:57:23;7.20;99.90
22742;DHT22;11538;48.884;8.696;2023-12-20T01:59:50;7.20;99.90
22742;DHT22;11538;48.884;8.696;2023-12-20T02:02:17;7.10;99.90
22742;DHT22;11538;48.884;8.696;2023-12-20T02:04:44;7.20;99.90
22742;DHT22;11538;48.884;8.696;2023-12-20T02:07:12;7.10;99.90
22742;DHT22;11538;48.884;8.696;2023-12-20T02:09:40;7.10;99.90
22742;DHT22;11538;48.884;8.696;2023-12-20T02:12:07;7.10;99.90
22742;DHT22;11538;48.884;8.696;2023-12-20T02:14:34;7.00;99.90
22742;DHT22;11538;48.884;8.696;2023-12-20T02:17:01;7.10;99.90
22742;DHT22;11538;48.884;8.696;2023-12-20T02:19:28;7.00;99.90
22742;DHT22;11538;48.884;8.696;2023-12-20T02:22:11;7.00;99.90
22742;DHT22;11538;48.884;8.696;2023-12-20T02:24:38;7.00;99.90
22742;DHT22;11538;48.884;8.696;2023-12-20T02:27:06;6.90;99.90
22742;DHT22;11538;48.884;8.696;2023-12-20T02:29:34;7.00;99.90
22742;DHT22;11538;48.884;8.696;2023-12-20T02:32:02;6.90;99.90
22742;DHT22;11538;48.884;8.696;2023-12-20T02:34:29;6.90;99.90
22742;DHT22;11538;48.884;8.696;2023-12-20T02:36:56;6.90;99.90
22742;DHT22;11538;48.884;8.696;2023-12-20T02:39:23;6.90;99.90
22742;DHT22;11538;48.884;8.696;2023-12-20T02:41:50;6.90;99.90
22742;DHT22;11538;48.884;8.696;2023-12-20T02:44:17;6.80;99.90
22742;DHT22;11538;48.884;8.696;2023-12-20T02:46:44;6.80;99.90
22742;DHT22;11538;48.884;8.696;2023-12-20T02:49:11;6.80;99.90
22742;DHT22;11538;48.884;8.696;2023-12-20T02:51:38;6.80;99.90
22742;DHT22;11538;48.884;8.696;2023-12-20T02:54:05;6.80;99.90
22742;DHT22;11538;48.884;8.696;2023-12-20T02:56:33;6.70;99.90
22742;DHT22;11538;48.884;8.696;2023-12-20T02:59:00;6.70;99.90
22742;DHT22;11538;48.884;8.696;2023-12-20T03:01:29;6.70;99.90
22742;DHT22;11538;48.884;8.696;2023-12-20T03:03:56;6.70;99.90
22742;DHT22;11538;48.884;8.696;2023-12-20T03:06:24;6.70;99.90
22742;DHT22;11538;48.884;8.696;2023-12-20T03:08:52;6.60;99.90
22742;DHT22;11538;48.884;8.696;2023-12-20T03:11:18;6.60;99.90
22742;DHT22;11538;48.884;8.696;2023-12-20T03:13:45;6.60;99.90
22742;DHT22;11538;48.884;8.696;2023-12-20T03:16:13;6.60;99.90
22742;DHT22;11538;48.884;8.696;2023-12-20T03:18:42;6.60;99.90
22742;DHT22;11538;48.884;8.696;2023-12-20T03:21:09;6.60;99.90
22742;DHT22;11538;48.884;8.696;2023-12-20T03:23:36;6.60;99.90
22742;DHT22;11538;48.884;8.696;2023-12-20T03:26:03;6.60;99.90
22742;DHT22;11538;48.884;8.696;2023-12-20T03:28:34;6.50;99.90
22742;DHT22;11538;48.884;8.696;2023-12-20T03:31:01;6.60;99.90
22742;DHT22;11538;48.884;8.696;2023-12-20T03:33:29;6.50;99.90
22742;DHT22;11538;48.884;8.696;2023-12-20T03:35:56;6.50;99.90
22742;DHT22;11538;48.884;8.696;2023-12-20T03:38:23;6.50;99.90
22742;DHT22;11538;48.884;8.696;2023-12-20T03:40:50;6.50;99.90
22742;DHT22;11538;48.884;8.696;2023-12-20T03:43:17;6.50;99.90
22742;DHT22;11538;48.884;8.696;2023-12-20T03:45:45;6.50;99.90
22742;DHT22;11538;48.884;8.696;2023-12-20T03:48:12;6.50;99.90
22742;DHT22;11538;48.884;8.696;2023-12-20T03:50:39;6.50;99.90
22742;DHT22;11538;48.884;8.696;2023-12-20T03:53:06;6.50;99.90
22742;DHT22;11538;48.884;8.696;2023-12-20T03:55:33;6.50;99.90
22742;DHT22;11538;48.884;8.696;2023-12-20T03:58:00;6.50;99.90
22742;DHT22;11538;48.884;8.696;2023-12-20T04:00:27;6.50;99.90
22742;DHT22;11538;48.884;8.696;2023-12-20T04:02:54;6.50;99.90
22742;DHT22;11538;48.884;8.696;2023-12-20T04:05:21;6.50;99.90
22742;DHT22;11538;48.884;8.696;2023-12-20T04:07:48;6.40;99.90
22742;DHT22;11538;48.884;8.696;2023-12-20T04:10:16;6.50;99.90
22742;DHT22;11538;48.884;8.696;2023-12-20T04:12:43;6.50;99.90
22742;DHT22;11538;48.884;8.696;2023-12-20T04:15:10;6.50;99.90
22742;DHT22;11538;48.884;8.696;2023-12-20T04:17:38;6.50;99.90
22742;DHT22;11538;48.884;8.696;2023-12-20T04:20:06;6.50;99.90
22742;DHT22;11538;48.884;8.696;2023-12-20T04:22:33;6.50;99.90
22742;DHT22;11538;48.884;8.696;2023-12-20T04:25:00;6.50;99.90
22742;DHT22;11538;48.884;8.696;2023-12-20T04:27:27;6.50;99.90
22742;DHT22;11538;48.884;8.696;2023-12-20T04:29:54;6.50;99.90
22742;DHT22;11538;48.884;8.696;2023-12-20T04:32:20;6.50;99.90
22742;DHT22;11538;48.884;8.696;2023-12-20T04:34:47;6.50;99.90
22742;DHT22;11538;48.884;8.696;2023-12-20T04:37:14;6.60;99.90
22742;DHT22;11538;48.884;8.696;2023-12-20T04:39:41;6.60;99.90
22742;DHT22;11538;48.884;8.696;2023-12-20T04:42:09;6.60;99.90
22742;DHT22;11538;48.884;8.696;2023-12-20T04:44:35;6.60;99.90
22742;DHT22;11538;48.884;8.696;2023-12-20T04:47:02;6.60;99.90
22742;DHT22;11538;48.884;8.696;2023-12-20T04:49:29;6.60;99.90
22742;DHT22;11538;48.884;8.696;2023-12-20T04:51:56;6.60;99.90
22742;DHT22;11538;48.884;8.696;2023-12-20T04:54:23;6.70;99.90
22742;DHT22;11538;48.884;8.696;2023-12-20T04:56:50;6.70;99.90
22742;DHT22;11538;48.884;8.696;2023-12-20T04:59:17;6.70;99.90
22742;DHT22;11538;48.884;8.696;2023-12-20T05:01:44;6.60;99.90
22742;DHT22;11538;48.884;8.696;2023-12-20T05:04:11;6.70;99.90
22742;DHT22;11538;48.884;8.696;2023-12-20T05:06:38;6.60;99.90
22742;DHT22;11538;48.884;8.696;2023-12-20T05:09:05;6.70;99.90
22742;DHT22;11538;48.884;8.696;2023-12-20T05:11:31;6.60;99.90
22742;DHT22;11538;48.884;8.696;2023-12-20T05:13:58;6.70;99.90
22742;DHT22;11538;48.884;8.696;2023-12-20T05:16:25;6.60;99.90
22742;DHT22;11538;48.884;8.696;2023-12-20T05:18:52;6.70;99.90
22742;DHT22;11538;48.884;8.696;2023-12-20T05:21:19;6.70;99.90
22742;DHT22;11538;48.884;8.696;2023-12-20T05:23:46;6.70;99.90
22742;DHT22;11538;48.884;8.696;2023-12-20T05:26:13;6.70;99.90
22742;DHT22;11538;48.884;8.696;2023-12-20T05:28:40;6.70;99.90
22742;DHT22;11538;48.884;8.696;2023-12-20T05:31:06;6.70;99.90
22742;DHT22;11538;48.884;8.696;2023-12-20T05:33:34;6.70;99.90
22742;DHT22;11538;48.884;8.696;2023-12-20T05:36:01;6.70;99.90
22742;DHT22;11538;48.884;8.696;2023-12-20T05:38:28;6.70;99.90
22742;DHT22;11538;48.884;8.696;2023-12-20T05:40:55;6.60;99.90
22742;DHT22;11538;48.884;8.696;2023-12-20T05:43:21;6.70;99.90
22742;DHT22;11538;48.884;8.696;2023-12-20T05:45:49;6.60;99.90
22742;DHT22;11538;48.884;8.696;2023-12-20T05:48:16;6.70;99.90
22742;DHT22;11538;48.884;8.696;2023-12-20T05:50:43;6.70;99.90
22742;DHT22;11538;48.884;8.696;2023-12-20T05:53:10;6.70;99.90
22742;DHT22;11538;48.884;8.696;2023-12-20T05:55:36;6.70;99.90
22742;DHT22;11538;48.884;8.696;2023-12-20T05:58:03;6.60;99.90
22742;DHT22;11538;48.884;8.696;2023-12-20T06:00:31;6.70;99.90
22742;DHT22;11538;48.884;8.696;2023-12-20T06:02:58;6.70;99.90
22742;DHT22;11538;48.884;8.696;2023-12-20T06:05:25;6.70;99.90
22742;DHT22;11538;48.884;8.696;2023-12-20T06:07:52;6.70;99.90
22742;DHT22;11538;48.884;8.696;2023-12-20T06:10:21;6.70;99.90
22742;DHT22;11538;48.884;8.696;2023-12-20T06:12:48;6.70;99.90
22742;DHT22;11538;48.884;8.696;2023-12-20T06:15:18;6.70;99.90
22742;DHT22;11538;48.884;8.696;2023-12-20T06:17:45;6.80;99.90
22742;DHT22;11538;48.884;8.696;2023-12-20T06:20:15;6.70;99.90
22742;DHT22;11538;48.884;8.696;2023-12-20T06:22:42;6.80;99.90
22742;DHT22;11538;48.884;8.696;2023-12-20T06:25:09;6.80;99.90
22742;DHT22;11538;48.884;8.696;2023-12-20T06:27:36;6.80;99.90
22742;DHT22;11538;48.884;8.696;2023-12-20T06:30:03;6.80;99.90
22742;DHT22;11538;48.884;8.696;2023-12-20T06:32:32;6.80;99.90
22742;DHT22;11538;48.884;8.696;2023-12-20T06:34:59;6.80;99.90
22742;DHT22;11538;48.884;8.696;2023-12-20T06:37:26;6.80;99.90
22742;DHT22;11538;48.884;8.696;2023-12-20T06:39:53;6.80;99.90
22742;DHT22;11538;48.884;8.696;2023-12-20T06:42:20;6.80;99.90
22742;DHT22;11538;48.884;8.696;2023-12-20T06:44:47;6.80;99.90
22742;DHT22;11538;48.884;8.696;2023-12-20T06:47:14;6.80;99.90
22742;DHT22;11538;48.884;8.696;2023-12-20T06:49:41;6.80;99.90
22742;DHT22;11538;48.884;8.696;2023-12-20T06:52:08;6.80;99.90
22742;DHT22;11538;48.884;8.696;2023-12-20T06:54:35;6.70;99.90
22742;DHT22;11538;48.884;8.696;2023-12-20T06:57:01;6.70;99.90
22742;DHT22;11538;48.884;8.696;2023-12-20T06:59:31;6.70;99.90
22742;DHT22;11538;48.884;8.696;2023-12-20T07:01:58;6.70;99.90
22742;DHT22;11538;48.884;8.696;2023-12-20T07:04:25;6.70;99.90
22742;DHT22;11538;48.884;8.696;2023-12-20T07:06:52;6.70;99.90
22742;DHT22;11538;48.884;8.696;2023-12-20T07:09:24;6.70;99.90
22742;DHT22;11538;48.884;8.696;2023-12-20T07:11:50;6.70;99.90
22742;DHT22;11538;48.884;8.696;2023-12-20T07:14:24;6.70;99.90
22742;DHT22;11538;48.884;8.696;2023-12-20T07:16:51;6.70;99.90
22742;DHT22;11538;48.884;8.696;2023-12-20T07:19:18;6.70;99.90
22742;DHT22;11538;48.884;8.696;2023-12-20T07:21:45;6.70;99.90
22742;DHT22;11538;48.884;8.696;2023-12-20T07:24:12;6.70;99.90
22742;DHT22;11538;48.884;8.696;2023-12-20T07:26:39;6.70;99.90
22742;DHT22;11538;48.884;8.696;2023-12-20T07:29:06;6.60;99.90
22742;DHT22;11538;48.884;8.696;2023-12-20T07:31:33;6.70;99.90
22742;DHT22;11538;48.884;8.696;2023-12-20T07:34:01;6.60;99.90
22742;DHT22;11538;48.884;8.696;2023-12-20T07:36:28;6.70;99.90
22742;DHT22;11538;48.884;8.696;2023-12-20T07:38:55;6.70;99.90
22742;DHT22;11538;48.884;8.696;2023-12-20T07:41:22;6.70;99.90
22742;DHT22;11538;48.884;8.696;2023-12-20T07:43:50;6.70;99.90
22742;DHT22;11538;48.884;8.696;2023-12-20T07:46:17;6.60;99.90
22742;DHT22;11538;48.884;8.696;2023-12-20T07:48:45;6.60;99.90
22742;DHT22;11538;48.884;8.696;2023-12-20T07:51:13;6.60;99.90
22742;DHT22;11538;48.884;8.696;2023-12-20T07:53:40;6.60;99.90
22742;DHT22;11538;48.884;8.696;2023-12-20T07:56:16;6.60;99.90
22742;DHT22;11538;48.884;8.696;2023-12-20T07:58:45;6.60;99.90
22742;DHT22;11538;48.884;8.696;2023-12-20T08:01:19;6.60;99.90
22742;DHT22;11538;48.884;8.696;2023-12-20T08:03:48;6.60;99.90
22742;DHT22;11538;48.884;8.696;2023-12-20T08:06:16;6.60;99.90
22742;DHT22;11538;48.884;8.696;2023-12-20T08:08:44;6.60;99.90
22742;DHT22;11538;48.884;8.696;2023-12-20T08:11:11;6.60;99.90
22742;DHT22;11538;48.884;8.696;2023-12-20T08:13:38;6.60;99.90
22742;DHT22;11538;48.884;8.696;2023-12-20T08:16:05;6.60;99.90
22742;DHT22;11538;48.884;8.696;2023-12-20T08:18:32;6.50;99.90
22742;DHT22;11538;48.884;8.696;2023-12-20T08:21:00;6.60;99.90
22742;DHT22;11538;48.884;8.696;2023-12-20T08:23:27;6.50;99.90
22742;DHT22;11538;48.884;8.696;2023-12-20T08:25:58;6.50;99.90
22742;DHT22;11538;48.884;8.696;2023-12-20T08:28:24;6.50;99.90
22742;DHT22;11538;48.884;8.696;2023-12-20T08:30:52;6.50;99.90
22742;DHT22;11538;48.884;8.696;2023-12-20T08:33:20;6.50;99.90
22742;DHT22;11538;48.884;8.696;2023-12-20T08:35:47;6.50;99.90
22742;DHT22;11538;48.884;8.696;2023-12-20T08:38:14;6.50;99.90
22742;DHT22;11538;48.884;8.696;2023-12-20T08:40:41;6.60;99.90
22742;DHT22;11538;48.884;8.696;2023-12-20T08:43:08;6.60;99.90
22742;DHT22;11538;48.884;8.696;2023-12-20T08:45:35;6.60;99.90
22742;DHT22;11538;48.884;8.696;2023-12-20T08:48:03;6.70;99.90
22742;DHT22;11538;48.884;8.696;2023-12-20T08:50:35;6.70;99.90
22742;DHT22;11538;48.884;8.696;2023-12-20T08:53:03;6.70;99.90
22742;DHT22;11538;48.884;8.696;2023-12-20T08:55:30;6.80;99.90
22742;DHT22;11538;48.884;8.696;2023-12-20T08:57:58;6.80;99.90
22742;DHT22;11538;48.884;8.696;2023-12-20T09:00:25;6.80;99.90
22742;DHT22;11538;48.884;8.696;2023-12-20T09:02:54;6.80;99.90
22742;DHT22;11538;48.884;8.696;2023-12-20T09:05:21;6.80;99.90
22742;DHT22;11538;48.884;8.696;2023-12-20T09:07:49;6.80;99.90
22742;DHT22;11538;48.884;8.696;2023-12-20T09:10:16;6.90;99.90
22742;DHT22;11538;48.884;8.696;2023-12-20T09:12:53;6.90;99.90
22742;DHT22;11538;48.884;8.696;2023-12-20T09:15:24;6.90;99.90
22742;DHT22;11538;48.884;8.696;2023-12-20T09:17:53;7.00;99.90
22742;DHT22;11538;48.884;8.696;2023-12-20T09:20:20;7.00;99.90
22742;DHT22;11538;48.884;8.696;2023-12-20T09:22:47;7.10;99.90
22742;DHT22;11538;48.884;8.696;2023-12-20T09:25:14;7.10;99.90
22742;DHT22;11538;48.884;8.696;2023-12-20T09:27:42;7.20;99.90
22742;DHT22;11538;48.884;8.696;2023-12-20T09:30:10;7.30;99.90
22742;DHT22;11538;48.884;8.696;2023-12-20T09:32:37;7.20;99.90
22742;DHT22;11538;48.884;8.696;2023-12-20T09:35:04;7.20;99.90
22742;DHT22;11538;48.884;8.696;2023-12-20T09:37:33;7.20;99.90
22742;DHT22;11538;48.884;8.696;2023-12-20T09:40:00;7.20;99.90
22742;DHT22;11538;48.884;8.696;2023-12-20T09:42:57;7.20;99.90
22742;DHT22;11538;48.884;8.696;2023-12-20T09:45:30;7.20;99.90
22742;DHT22;11538;48.884;8.696;2023-12-20T09:47:58;7.20;99.90
22742;DHT22;11538;48.884;8.696;2023-12-20T09:50:26;7.20;99.90
22742;DHT22;11538;48.884;8.696;2023-12-20T09:52:54;7.20;99.90
22742;DHT22;11538;48.884;8.696;2023-12-20T09:55:27;7.20;99.90
22742;DHT22;11538;48.884;8.696;2023-12-20T09:57:57;7.20;99.90
22742;DHT22;11538;48.884;8.696;2023-12-20T10:00:24;7.10;99.90
22742;DHT22;11538;48.884;8.696;2023-12-20T10:02:58;7.10;99.90
22742;DHT22;11538;48.884;8.696;2023-12-20T10:05:33;7.00;99.90
22742;DHT22;11538;48.884;8.696;2023-12-20T10:08:01;7.00;99.90
22742;DHT22;11538;48.884;8.696;2023-12-20T10:10:30;7.00;99.90
22742;DHT22;11538;48.884;8.696;2023-12-20T10:13:12;7.10;99.90
22742;DHT22;11538;48.884;8.696;2023-12-20T10:15:40;7.10;99.90
22742;DHT22;11538;48.884;8.696;2023-12-20T10:18:08;7.10;99.90
22742;DHT22;11538;48.884;8.696;2023-12-20T10:20:36;7.10;99.90
22742;DHT22;11538;48.884;8.696;2023-12-20T10:23:03;7.10;99.90
22742;DHT22;11538;48.884;8.696;2023-12-20T10:25:30;7.10;99.90
22742;DHT22;11538;48.884;8.696;2023-12-20T10:28:10;7.20;99.90
22742;DHT22;11538;48.884;8.696;2023-12-20T10:30:39;7.20;99.90
22742;DHT22;11538;48.884;8.696;2023-12-20T10:33:08;7.30;99.90
22742;DHT22;11538;48.884;8.696;2023-12-20T10:35:38;7.30;99.90
22742;DHT22;11538;48.884;8.696;2023-12-20T10:38:10;7.30;99.90
22742;DHT22;11538;48.884;8.696;2023-12-20T10:40:39;7.30;99.90
22742;DHT22;11538;48.884;8.696;2023-12-20T10:43:08;7.30;99.90
22742;DHT22;11538;48.884;8.696;2023-12-20T10:45:37;7.30;99.90
22742;DHT22;11538;48.884;8.696;2023-12-20T10:48:04;7.40;99.90
22742;DHT22;11538;48.884;8.696;2023-12-20T10:50:32;7.30;99.90
22742;DHT22;11538;48.884;8.696;2023-12-20T10:53:02;7.30;99.90
22742;DHT22;11538;48.884;8.696;2023-12-20T10:55:30;7.30;99.90
22742;DHT22;11538;48.884;8.696;2023-12-20T10:58:02;7.30;99.90
22742;DHT22;11538;48.884;8.696;2023-12-20T11:00:39;7.30;99.90
22742;DHT22;11538;48.884;8.696;2023-12-20T11:03:09;7.30;99.90
22742;DHT22;11538;48.884;8.696;2023-12-20T11:06:02;7.30;99.90
22742;DHT22;11538;48.884;8.696;2023-12-20T11:08:47;7.30;99.90
22742;DHT22;11538;48.884;8.696;2023-12-20T11:12:01;7.30;99.90
22742;DHT22;11538;48.884;8.696;2023-12-20T11:14:41;7.30;99.90
22742;DHT22;11538;48.884;8.696;2023-12-20T11:17:13;7.30;99.90
22742;DHT22;11538;48.884;8.696;2023-12-20T11:22:24;7.20;99.90
22742;DHT22;11538;48.884;8.696;2023-12-20T11:24:53;7.20;99.90
22742;DHT22;11538;48.884;8.696;2023-12-20T11:27:20;7.20;99.90
22742;DHT22;11538;48.884;8.696;2023-12-20T11:29:56;7.20;99.90
22742;DHT22;11538;48.884;8.696;2023-12-20T11:34:56;7.20;99.90
22742;DHT22;11538;48.884;8.696;2023-12-20T11:37:29;7.20;99.90
22742;DHT22;11538;48.884;8.696;2023-12-20T11:40:02;7.30;99.90
22742;DHT22;11538;48.884;8.696;2023-12-20T11:42:37;7.30;99.90
22742;DHT22;11538;48.884;8.696;2023-12-20T11:45:08;7.40;99.90
22742;DHT22;11538;48.884;8.696;2023-12-20T11:47:36;7.50;99.90
22742;DHT22;11538;48.884;8.696;2023-12-20T11:50:03;7.50;99.90
22742;DHT22;11538;48.884;8.696;2023-12-20T11:52:31;7.50;99.90
22742;DHT22;11538;48.884;8.696;2023-12-20T11:54:58;7.60;99.90
22742;DHT22;11538;48.884;8.696;2023-12-20T11:57:25;7.70;99.90
22742;DHT22;11538;48.884;8.696;2023-12-20T11:59:54;7.80;99.90
22742;DHT22;11538;48.884;8.696;2023-12-20T12:02:21;7.90;99.90
22742;DHT22;11538;48.884;8.696;2023-12-20T12:04:49;8.00;99.90
22742;DHT22;11538;48.884;8.696;2023-12-20T12:07:17;8.10;99.90
22742;DHT22;11538;48.884;8.696;2023-12-20T12:09:46;8.10;99.90
22742;DHT22;11538;48.884;8.696;2023-12-20T12:12:13;8.20;99.90
22742;DHT22;11538;48.884;8.696;2023-12-20T12:14:41;8.20;99.90
22742;DHT22;11538;48.884;8.696;2023-12-20T12:17:12;8.20;99.90
22742;DHT22;11538;48.884;8.696;2023-12-20T12:19:40;8.30;99.90
22742;DHT22;11538;48.884;8.696;2023-12-20T12:22:09;8.30;99.90
22742;DHT22;11538;48.884;8.696;2023-12-20T12:24:46;8.30;99.90
22742;DHT22;11538;48.884;8.696;2023-12-20T12:27:13;8.30;99.90
22742;DHT22;11538;48.884;8.696;2023-12-20T12:29:40;8.30;99.90
22742;DHT22;11538;48.884;8.696;2023-12-20T12:32:08;8.30;99.90
22742;DHT22;11538;48.884;8.696;2023-12-20T12:34:36;8.30;99.90
22742;DHT22;11538;48.884;8.696;2023-12-20T12:37:04;8.30;99.90
22742;DHT22;11538;48.884;8.696;2023-12-20T12:39:31;8.30;99.90
22742;DHT22;11538;48.884;8.696;2023-12-20T12:41:58;8.30;99.90
22742;DHT22;11538;48.884;8.696;2023-12-20T12:44:25;8.30;99.90
22742;DHT22;11538;48.884;8.696;2023-12-20T12:46:53;8.30;99.90
22742;DHT22;11538;48.884;8.696;2023-12-20T12:49:20;8.30;99.90
22742;DHT22;11538;48.884;8.696;2023-12-20T12:51:48;8.30;99.90
22742;DHT22;11538;48.884;8.696;2023-12-20T12:54:15;8.20;99.90
22742;DHT22;11538;48.884;8.696;2023-12-20T12:56:44;8.20;99.90
22742;DHT22;11538;48.884;8.696;2023-12-20T12:59:11;8.20;99.90
22742;DHT22;11538;48.884;8.696;2023-12-20T13:01:38;8.10;99.90
22742;DHT22;11538;48.884;8.696;2023-12-20T13:04:06;8.20;99.90
22742;DHT22;11538;48.884;8.696;2023-12-20T13:06:37;8.10;99.90
22742;DHT22;11538;48.884;8.696;2023-12-20T13:09:05;8.10;99.90
22742;DHT22;11538;48.884;8.696;2023-12-20T13:11:33;8.20;99.90
22742;DHT22;11538;48.884;8.696;2023-12-20T13:14:01;8.20;99.90
22742;DHT22;11538;48.884;8.696;2023-12-20T13:16:30;8.10;99.90
22742;DHT22;11538;48.884;8.696;2023-12-20T13:18:57;8.10;99.90
22742;DHT22;11538;48.884;8.696;2023-12-20T13:21:27;8.10;99.90
22742;DHT22;11538;48.884;8.696;2023-12-20T13:23:54;8.00;99.90
22742;DHT22;11538;48.884;8.696;2023-12-20T13:26:21;7.90;99.90
22742;DHT22;11538;48.884;8.696;2023-12-20T13:28:48;7.80;99.90
22742;DHT22;11538;48.884;8.696;2023-12-20T13:31:15;7.70;99.90
22742;DHT22;11538;48.884;8.696;2023-12-20T13:33:42;7.70;99.90
22742;DHT22;11538;48.884;8.696;2023-12-20T13:36:09;7.60;99.90
22742;DHT22;11538;48.884;8.696;2023-12-20T13:38:37;7.50;99.90
22742;DHT22;11538;48.884;8.696;2023-12-20T13:41:04;7.50;99.90
22742;DHT22;11538;48.884;8.696;2023-12-20T13:43:34;7.50;99.90
22742;DHT22;11538;48.884;8.696;2023-12-20T13:46:02;7.40;99.90
22742;DHT22;11538;48.884;8.696;2023-12-20T13:48:28;7.40;99.90
22742;DHT22;11538;48.884;8.696;2023-12-20T13:50:55;7.30;99.90
22742;DHT22;11538;48.884;8.696;2023-12-20T13:53:22;7.30;99.90
22742;DHT22;11538;48.884;8.696;2023-12-20T13:55:49;7.30;99.90
22742;DHT22;11538;48.884;8.696;2023-12-20T13:58:16;7.20;99.90
22742;DHT22;11538;48.884;8.696;2023-12-20T14:00:43;7.10;99.90
22742;DHT22;11538;48.884;8.696;2023-12-20T14:03:10;7.10;99.90
22742;DHT22;11538;48.884;8.696;2023-12-20T14:05:37;7.10;99.90
22742;DHT22;11538;48.884;8.696;2023-12-20T14:08:05;7.10;99.90
22742;DHT22;11538;48.884;8.696;2023-12-20T14:10:33;7.10;99.90
22742;DHT22;11538;48.884;8.696;2023-12-20T14:13:00;7.00;99.90
22742;DHT22;11538;48.884;8.696;2023-12-20T14:15:27;7.00;99.90
22742;DHT22;11538;48.884;8.696;2023-12-20T14:17:54;7.00;99.90
22742;DHT22;11538;48.884;8.696;2023-12-20T14:20:21;7.00;99.90
22742;DHT22;11538;48.884;8.696;2023-12-20T14:22:49;6.90;99.90
22742;DHT22;11538;48.884;8.696;2023-12-20T14:25:16;7.00;99.90
22742;DHT22;11538;48.884;8.696;2023-12-20T14:27:43;6.90;99.90
22742;DHT22;11538;48.884;8.696;2023-12-20T14:30:12;6.90;99.90
22742;DHT22;11538;48.884;8.696;2023-12-20T14:32:42;6.90;99.90
22742;DHT22;11538;48.884;8.696;2023-12-20T14:35:09;6.90;99.90
22742;DHT22;11538;48.884;8.696;2023-12-20T14:37:37;6.90;99.90
22742;DHT22;11538;48.884;8.696;2023-12-20T14:40:09;6.80;99.90
22742;DHT22;11538;48.884;8.696;2023-12-20T14:42:45;6.80;99.90
22742;DHT22;11538;48.884;8.696;2023-12-20T14:45:13;6.80;99.90
22742;DHT22;11538;48.884;8.696;2023-12-20T14:47:41;6.80;99.90
22742;DHT22;11538;48.884;8.696;2023-12-20T14:50:09;6.80;99.90
22742;DHT22;11538;48.884;8.696;2023-12-20T14:52:38;6.80;99.90
22742;DHT22;11538;48.884;8.696;2023-12-20T14:55:08;6.80;99.90
22742;DHT22;11538;48.884;8.696;2023-12-20T14:57:35;6.80;99.90
22742;DHT22;11538;48.884;8.696;2023-12-20T15:00:03;6.80;99.90
22742;DHT22;11538;48.884;8.696;2023-12-20T15:02:31;6.80;99.90
22742;DHT22;11538;48.884;8.696;2023-12-20T15:04:58;6.90;99.90
22742;DHT22;11538;48.884;8.696;2023-12-20T15:07:25;6.80;99.90
22742;DHT22;11538;48.884;8.696;2023-12-20T15:09:52;6.80;99.90
22742;DHT22;11538;48.884;8.696;2023-12-20T15:12:19;6.80;99.90
22742;DHT22;11538;48.884;8.696;2023-12-20T15:14:46;6.80;99.90
22742;DHT22;11538;48.884;8.696;2023-12-20T15:17:13;6.70;99.90
22742;DHT22;11538;48.884;8.696;2023-12-20T15:19:41;6.70;99.90
22742;DHT22;11538;48.884;8.696;2023-12-20T15:22:09;6.70;99.90
22742;DHT22;11538;48.884;8.696;2023-12-20T15:24:37;6.60;99.90
22742;DHT22;11538;48.884;8.696;2023-12-20T15:27:09;6.60;99.90
22742;DHT22;11538;48.884;8.696;2023-12-20T15:29:36;6.60;99.90
22742;DHT22;11538;48.884;8.696;2023-12-20T15:32:04;6.60;99.90
22742;DHT22;11538;48.884;8.696;2023-12-20T15:34:31;6.50;99.90
22742;DHT22;11538;48.884;8.696;2023-12-20T15:36:58;6.50;99.90
22742;DHT22;11538;48.884;8.696;2023-12-20T15:39:25;6.50;99.90
22742;DHT22;11538;48.884;8.696;2023-12-20T15:41:52;6.50;99.90
22742;DHT22;11538;48.884;8.696;2023-12-20T15:44:19;6.50;99.90
22742;DHT22;11538;48.884;8.696;2023-12-20T15:46:46;6.50;99.90
22742;DHT22;11538;48.884;8.696;2023-12-20T15:49:13;6.40;99.90
22742;DHT22;11538;48.884;8.696;2023-12-20T15:51:42;6.40;99.90
22742;DHT22;11538;48.884;8.696;2023-12-20T15:54:09;6.40;99.90
22742;DHT22;11538;48.884;8.696;2023-12-20T15:56:36;6.40;99.90
22742;DHT22;11538;48.884;8.696;2023-12-20T15:59:03;6.30;99.90